sensor_id;sensor_type;location;lat;lon;timestamp;temperature;humidity
72762;SHT30;60886;55.034;73.150;2023-06-14T00:01:33;8.22;67.10
72762;SHT30;60886;55.034;73.150;2023-06-14T00:04:35;8.23;66.98
72762;SHT30;60886;55.034;73.150;2023-06-14T00:07:40;8.40;66.14
72762;SHT30;60886;55.034;73.150;2023-06-14T00:10:44;8.57;65.56
72762;SHT30;60886;55.034;73.150;2023-06-14T00:13:47;8.70;66.28
72762;SHT30;60886;55.034;73.150;2023-06-14T00:16:49;8.71;65.96
72762;SHT30;60886;55.034;73.150;2023-06-14T00:19:50;8.77;65.86
72762;SHT30;60886;55.034;73.150;2023-06-14T00:22:51;8.87;65.87
72762;SHT30;60886;55.034;73.150;2023-06-14T00:25:53;8.94;65.59
72762;SHT30;60886;55.034;73.150;2023-06-14T00:29:04;9.03;65.91
72762;SHT30;60886;55.034;73.150;2023-06-14T00:32:06;9.14;64.66
72762;SHT30;60886;55.034;73.150;2023-06-14T00:35:09;9.22;64.52
72762;SHT30;60886;55.034;73.150;2023-06-14T00:38:11;9.36;64.36
72762;SHT30;60886;55.034;73.150;2023-06-14T00:41:15;9.48;63.98
72762;SHT30;60886;55.034;73.150;2023-06-14T00:44:17;9.63;64.58
72762;SHT30;60886;55.034;73.150;2023-06-14T00:47:19;9.79;64.18
72762;SHT30;60886;55.034;73.150;2023-06-14T00:50:22;10.02;62.91
72762;SHT30;60886;55.034;73.150;2023-06-14T00:53:24;10.20;64.44
72762;SHT30;60886;55.034;73.150;2023-06-14T00:56:26;10.77;62.04
72762;SHT30;60886;55.034;73.150;2023-06-14T00:59:28;11.15;62.27
72762;SHT30;60886;55.034;73.150;2023-06-14T01:02:30;11.42;60.73
72762;SHT30;60886;55.034;73.150;2023-06-14T01:05:32;11.73;59.43
72762;SHT30;60886;55.034;73.150;2023-06-14T01:09:23;12.03;57.42
72762;SHT30;60886;55.034;73.150;2023-06-14T01:15:50;12.79;55.20
72762;SHT30;60886;55.034;73.150;2023-06-14T01:18:53;13.08;55.30
72762;SHT30;60886;55.034;73.150;2023-06-14T01:22:00;13.44;54.22
72762;SHT30;60886;55.034;73.150;2023-06-14T01:25:02;13.75;52.16
72762;SHT30;60886;55.034;73.150;2023-06-14T01:28:06;14.05;53.64
72762;SHT30;60886;55.034;73.150;2023-06-14T01:31:12;14.15;54.08
72762;SHT30;60886;55.034;73.150;2023-06-14T01:34:14;14.26;52.01
72762;SHT30;60886;55.034;73.150;2023-06-14T01:37:17;14.48;51.03
72762;SHT30;60886;55.034;73.150;2023-06-14T01:40:19;14.83;50.07
72762;SHT30;60886;55.034;73.150;2023-06-14T01:43:23;15.07;49.36
72762;SHT30;60886;55.034;73.150;2023-06-14T01:46:26;15.40;51.00
72762;SHT30;60886;55.034;73.150;2023-06-14T01:49:29;15.62;49.56
72762;SHT30;60886;55.034;73.150;2023-06-14T01:52:34;15.85;50.10
72762;SHT30;60886;55.034;73.150;2023-06-14T01:55:38;15.94;48.33
72762;SHT30;60886;55.034;73.150;2023-06-14T01:58:42;16.23;49.22
72762;SHT30;60886;55.034;73.150;2023-06-14T02:01:45;16.49;48.20
72762;SHT30;60886;55.034;73.150;2023-06-14T02:04:47;16.65;45.21
72762;SHT30;60886;55.034;73.150;2023-06-14T02:07:50;16.91;46.76
72762;SHT30;60886;55.034;73.150;2023-06-14T02:10:53;17.14;48.93
72762;SHT30;60886;55.034;73.150;2023-06-14T02:14:04;17.42;46.12
72762;SHT30;60886;55.034;73.150;2023-06-14T02:17:08;17.57;42.78
72762;SHT30;60886;55.034;73.150;2023-06-14T02:20:10;17.70;43.47
72762;SHT30;60886;55.034;73.150;2023-06-14T02:23:11;17.83;41.47
72762;SHT30;60886;55.034;73.150;2023-06-14T02:26:13;17.93;42.78
72762;SHT30;60886;55.034;73.150;2023-06-14T02:29:14;18.12;41.34
72762;SHT30;60886;55.034;73.150;2023-06-14T02:32:17;18.28;39.90
72762;SHT30;60886;55.034;73.150;2023-06-14T02:35:20;18.34;42.08
72762;SHT30;60886;55.034;73.150;2023-06-14T02:38:23;18.63;40.04
72762;SHT30;60886;55.034;73.150;2023-06-14T02:41:24;18.80;38.76
72762;SHT30;60886;55.034;73.150;2023-06-14T02:44:29;18.80;38.61
72762;SHT30;60886;55.034;73.150;2023-06-14T02:47:31;19.03;44.40
72762;SHT30;60886;55.034;73.150;2023-06-14T02:50:32;19.07;38.05
72762;SHT30;60886;55.034;73.150;2023-06-14T02:53:34;19.21;37.04
72762;SHT30;60886;55.034;73.150;2023-06-14T02:56:36;19.32;37.09
72762;SHT30;60886;55.034;73.150;2023-06-14T02:59:37;19.36;39.47
72762;SHT30;60886;55.034;73.150;2023-06-14T03:02:40;19.47;35.67
72762;SHT30;60886;55.034;73.150;2023-06-14T03:05:46;19.59;37.05
72762;SHT30;60886;55.034;73.150;2023-06-14T03:08:49;19.73;35.43
72762;SHT30;60886;55.034;73.150;2023-06-14T03:11:53;19.72;34.20
72762;SHT30;60886;55.034;73.150;2023-06-14T03:14:54;19.71;35.71
72762;SHT30;60886;55.034;73.150;2023-06-14T03:17:58;19.73;33.88
72762;SHT30;60886;55.034;73.150;2023-06-14T03:21:03;19.90;36.74
72762;SHT30;60886;55.034;73.150;2023-06-14T03:24:06;20.20;35.38
72762;SHT30;60886;55.034;73.150;2023-06-14T03:27:09;20.14;33.34
72762;SHT30;60886;55.034;73.150;2023-06-14T03:30:13;20.26;35.47
72762;SHT30;60886;55.034;73.150;2023-06-14T03:33:16;20.27;35.06
72762;SHT30;60886;55.034;73.150;2023-06-14T03:36:18;20.37;33.77
72762;SHT30;60886;55.034;73.150;2023-06-14T03:39:20;20.37;35.09
72762;SHT30;60886;55.034;73.150;2023-06-14T03:42:22;20.43;33.90
72762;SHT30;60886;55.034;73.150;2023-06-14T03:45:23;20.54;33.61
72762;SHT30;60886;55.034;73.150;2023-06-14T03:48:25;20.74;32.83
72762;SHT30;60886;55.034;73.150;2023-06-14T03:51:28;20.87;32.79
72762;SHT30;60886;55.034;73.150;2023-06-14T03:54:30;20.91;33.28
72762;SHT30;60886;55.034;73.150;2023-06-14T03:57:34;20.99;33.03
72762;SHT30;60886;55.034;73.150;2023-06-14T04:00:35;21.02;33.28
72762;SHT30;60886;55.034;73.150;2023-06-14T04:03:39;21.19;32.86
72762;SHT30;60886;55.034;73.150;2023-06-14T04:06:42;21.35;33.89
72762;SHT30;60886;55.034;73.150;2023-06-14T04:09:45;21.25;31.58
72762;SHT30;60886;55.034;73.150;2023-06-14T04:12:47;21.18;32.11
72762;SHT30;60886;55.034;73.150;2023-06-14T04:15:49;21.45;31.39
72762;SHT30;60886;55.034;73.150;2023-06-14T04:19:04;21.37;32.93
72762;SHT30;60886;55.034;73.150;2023-06-14T04:22:06;21.52;31.88
72762;SHT30;60886;55.034;73.150;2023-06-14T04:25:09;21.41;31.01
72762;SHT30;60886;55.034;73.150;2023-06-14T04:28:12;21.65;34.54
72762;SHT30;60886;55.034;73.150;2023-06-14T04:31:15;21.58;31.59
72762;SHT30;60886;55.034;73.150;2023-06-14T04:34:17;21.65;32.95
72762;SHT30;60886;55.034;73.150;2023-06-14T04:37:27;21.82;32.39
72762;SHT30;60886;55.034;73.150;2023-06-14T04:40:30;21.89;31.64
72762;SHT30;60886;55.034;73.150;2023-06-14T04:43:35;21.80;30.81
72762;SHT30;60886;55.034;73.150;2023-06-14T04:46:40;21.82;30.50
72762;SHT30;60886;55.034;73.150;2023-06-14T04:49:51;21.73;29.68
72762;SHT30;60886;55.034;73.150;2023-06-14T04:52:56;21.62;30.94
72762;SHT30;60886;55.034;73.150;2023-06-14T04:55:59;21.56;32.88
72762;SHT30;60886;55.034;73.150;2023-06-14T04:59:04;21.82;34.31
72762;SHT30;60886;55.034;73.150;2023-06-14T05:02:06;22.06;30.98
72762;SHT30;60886;55.034;73.150;2023-06-14T05:05:08;21.79;29.04
72762;SHT30;60886;55.034;73.150;2023-06-14T05:08:13;21.70;29.23
72762;SHT30;60886;55.034;73.150;2023-06-14T05:11:14;21.62;29.64
72762;SHT30;60886;55.034;73.150;2023-06-14T05:14:18;21.65;29.29
72762;SHT30;60886;55.034;73.150;2023-06-14T05:17:20;21.58;28.97
72762;SHT30;60886;55.034;73.150;2023-06-14T05:20:23;21.48;29.57
72762;SHT30;60886;55.034;73.150;2023-06-14T05:23:28;21.52;31.46
72762;SHT30;60886;55.034;73.150;2023-06-14T05:26:29;21.65;30.83
72762;SHT30;60886;55.034;73.150;2023-06-14T05:29:31;21.67;30.96
72762;SHT30;60886;55.034;73.150;2023-06-14T05:32:32;21.75;31.53
72762;SHT30;60886;55.034;73.150;2023-06-14T05:35:34;22.00;30.63
72762;SHT30;60886;55.034;73.150;2023-06-14T05:38:39;22.00;29.21
72762;SHT30;60886;55.034;73.150;2023-06-14T05:41:40;21.82;29.60
72762;SHT30;60886;55.034;73.150;2023-06-14T05:44:42;21.97;31.83
72762;SHT30;60886;55.034;73.150;2023-06-14T05:47:43;22.00;30.03
72762;SHT30;60886;55.034;73.150;2023-06-14T05:50:45;22.16;29.96
72762;SHT30;60886;55.034;73.150;2023-06-14T05:53:50;22.17;30.92
72762;SHT30;60886;55.034;73.150;2023-06-14T05:56:51;22.16;29.37
72762;SHT30;60886;55.034;73.150;2023-06-14T05:59:53;22.16;32.04
72762;SHT30;60886;55.034;73.150;2023-06-14T06:02:54;22.11;30.45
72762;SHT30;60886;55.034;73.150;2023-06-14T06:05:58;21.92;30.52
72762;SHT30;60886;55.034;73.150;2023-06-14T06:09:04;21.89;31.77
72762;SHT30;60886;55.034;73.150;2023-06-14T06:12:06;21.75;30.32
72762;SHT30;60886;55.034;73.150;2023-06-14T06:15:08;21.83;30.62
72762;SHT30;60886;55.034;73.150;2023-06-14T06:18:13;21.67;31.07
72762;SHT30;60886;55.034;73.150;2023-06-14T06:21:14;21.78;30.57
72762;SHT30;60886;55.034;73.150;2023-06-14T06:24:16;21.85;30.46
72762;SHT30;60886;55.034;73.150;2023-06-14T06:27:17;21.82;30.04
72762;SHT30;60886;55.034;73.150;2023-06-14T06:30:20;21.83;30.75
72762;SHT30;60886;55.034;73.150;2023-06-14T06:33:21;21.94;31.61
72762;SHT30;60886;55.034;73.150;2023-06-14T06:36:23;21.96;30.82
72762;SHT30;60886;55.034;73.150;2023-06-14T06:39:24;22.03;29.51
72762;SHT30;60886;55.034;73.150;2023-06-14T06:42:27;22.04;31.22
72762;SHT30;60886;55.034;73.150;2023-06-14T06:45:33;22.01;29.71
72762;SHT30;60886;55.034;73.150;2023-06-14T06:48:34;22.03;31.17
72762;SHT30;60886;55.034;73.150;2023-06-14T06:51:36;22.01;30.74
72762;SHT30;60886;55.034;73.150;2023-06-14T06:54:39;21.93;31.05
72762;SHT30;60886;55.034;73.150;2023-06-14T06:57:40;22.06;29.88
72762;SHT30;60886;55.034;73.150;2023-06-14T07:00:42;22.20;30.96
72762;SHT30;60886;55.034;73.150;2023-06-14T07:03:43;22.24;29.52
72762;SHT30;60886;55.034;73.150;2023-06-14T07:06:46;22.09;28.92
72762;SHT30;60886;55.034;73.150;2023-06-14T07:09:48;22.11;30.45
72762;SHT30;60886;55.034;73.150;2023-06-14T07:12:49;22.30;30.12
72762;SHT30;60886;55.034;73.150;2023-06-14T07:16:00;22.27;29.08
72762;SHT30;60886;55.034;73.150;2023-06-14T07:19:04;22.29;29.67
72762;SHT30;60886;55.034;73.150;2023-06-14T07:22:06;22.33;29.79
72762;SHT30;60886;55.034;73.150;2023-06-14T07:25:11;22.30;29.44
72762;SHT30;60886;55.034;73.150;2023-06-14T07:28:16;22.40;29.32
72762;SHT30;60886;55.034;73.150;2023-06-14T07:31:19;22.31;29.92
72762;SHT30;60886;55.034;73.150;2023-06-14T07:34:20;22.33;29.64
72762;SHT30;60886;55.034;73.150;2023-06-14T07:37:22;22.41;30.50
72762;SHT30;60886;55.034;73.150;2023-06-14T07:40:23;22.24;30.40
72762;SHT30;60886;55.034;73.150;2023-06-14T07:43:27;22.29;30.27
72762;SHT30;60886;55.034;73.150;2023-06-14T07:46:28;22.51;30.74
72762;SHT30;60886;55.034;73.150;2023-06-14T07:49:30;22.57;29.88
72762;SHT30;60886;55.034;73.150;2023-06-14T07:52:31;22.60;29.12
72762;SHT30;60886;55.034;73.150;2023-06-14T07:55:33;22.53;30.48
72762;SHT30;60886;55.034;73.150;2023-06-14T07:58:38;22.45;29.19
72762;SHT30;60886;55.034;73.150;2023-06-14T08:01:39;22.53;30.18
72762;SHT30;60886;55.034;73.150;2023-06-14T08:04:41;22.45;30.09
72762;SHT30;60886;55.034;73.150;2023-06-14T08:07:43;22.29;30.29
72762;SHT30;60886;55.034;73.150;2023-06-14T08:10:45;22.01;29.95
72762;SHT30;60886;55.034;73.150;2023-06-14T08:13:47;22.16;30.83
72762;SHT30;60886;55.034;73.150;2023-06-14T08:16:48;22.48;31.52
72762;SHT30;60886;55.034;73.150;2023-06-14T08:19:50;22.65;29.78
72762;SHT30;60886;55.034;73.150;2023-06-14T08:22:51;22.92;29.43
72762;SHT30;60886;55.034;73.150;2023-06-14T08:25:56;23.14;29.79
72762;SHT30;60886;55.034;73.150;2023-06-14T08:29:04;23.28;29.40
72762;SHT30;60886;55.034;73.150;2023-06-14T08:32:06;23.39;29.24
72762;SHT30;60886;55.034;73.150;2023-06-14T08:35:08;23.38;28.99
72762;SHT30;60886;55.034;73.150;2023-06-14T08:38:12;23.29;28.75
72762;SHT30;60886;55.034;73.150;2023-06-14T08:41:22;23.12;28.72
72762;SHT30;60886;55.034;73.150;2023-06-14T08:44:27;22.87;29.28
72762;SHT30;60886;55.034;73.150;2023-06-14T08:47:28;22.83;29.98
72762;SHT30;60886;55.034;73.150;2023-06-14T08:50:39;22.76;30.89
72762;SHT30;60886;55.034;73.150;2023-06-14T08:53:43;22.69;29.60
72762;SHT30;60886;55.034;73.150;2023-06-14T08:56:45;22.57;29.75
72762;SHT30;60886;55.034;73.150;2023-06-14T08:59:49;22.57;30.00
72762;SHT30;60886;55.034;73.150;2023-06-14T09:02:55;22.74;29.87
72762;SHT30;60886;55.034;73.150;2023-06-14T09:05:59;22.58;30.63
72762;SHT30;60886;55.034;73.150;2023-06-14T09:09:04;22.54;30.52
72762;SHT30;60886;55.034;73.150;2023-06-14T09:12:07;22.63;30.23
72762;SHT30;60886;55.034;73.150;2023-06-14T09:15:11;22.60;29.80
72762;SHT30;60886;55.034;73.150;2023-06-14T09:18:13;22.55;29.95
72762;SHT30;60886;55.034;73.150;2023-06-14T09:21:17;22.55;30.28
72762;SHT30;60886;55.034;73.150;2023-06-14T09:24:19;22.61;30.68
72762;SHT30;60886;55.034;73.150;2023-06-14T09:27:21;22.71;31.84
72762;SHT30;60886;55.034;73.150;2023-06-14T09:30:22;22.75;30.14
72762;SHT30;60886;55.034;73.150;2023-06-14T09:33:25;22.81;32.07
72762;SHT30;60886;55.034;73.150;2023-06-14T09:36:27;22.90;31.99
72762;SHT30;60886;55.034;73.150;2023-06-14T09:39:50;23.04;31.96
72762;SHT30;60886;55.034;73.150;2023-06-14T09:42:52;23.11;31.48
72762;SHT30;60886;55.034;73.150;2023-06-14T09:45:54;23.02;30.14
72762;SHT30;60886;55.034;73.150;2023-06-14T09:49:05;22.85;30.74
72762;SHT30;60886;55.034;73.150;2023-06-14T09:52:20;22.83;30.66
72762;SHT30;60886;55.034;73.150;2023-06-14T09:55:26;22.76;30.43
72762;SHT30;60886;55.034;73.150;2023-06-14T09:58:30;22.76;31.66
72762;SHT30;60886;55.034;73.150;2023-06-14T10:01:35;22.83;31.11
72762;SHT30;60886;55.034;73.150;2023-06-14T10:04:39;22.90;31.82
72762;SHT30;60886;55.034;73.150;2023-06-14T10:07:50;23.02;31.91
72762;SHT30;60886;55.034;73.150;2023-06-14T10:10:56;23.05;31.18
72762;SHT30;60886;55.034;73.150;2023-06-14T10:14:05;23.02;30.96
72762;SHT30;60886;55.034;73.150;2023-06-14T10:17:13;22.98;30.85
72762;SHT30;60886;55.034;73.150;2023-06-14T10:23:30;22.95;32.45
72762;SHT30;60886;55.034;73.150;2023-06-14T10:26:33;22.76;31.88
72762;SHT30;60886;55.034;73.150;2023-06-14T10:33:07;22.81;32.50
72762;SHT30;60886;55.034;73.150;2023-06-14T10:36:28;22.75;31.64
72762;SHT30;60886;55.034;73.150;2023-06-14T10:39:42;22.79;32.13
72762;SHT30;60886;55.034;73.150;2023-06-14T10:42:51;22.79;31.22
72762;SHT30;60886;55.034;73.150;2023-06-14T10:46:18;22.83;32.06
72762;SHT30;60886;55.034;73.150;2023-06-14T10:52:46;22.92;32.21
72762;SHT30;60886;55.034;73.150;2023-06-14T10:55:47;22.96;33.09
72762;SHT30;60886;55.034;73.150;2023-06-14T10:58:49;23.02;32.84
72762;SHT30;60886;55.034;73.150;2023-06-14T11:02:20;23.06;31.99
72762;SHT30;60886;55.034;73.150;2023-06-14T11:05:26;23.01;31.06
72762;SHT30;60886;55.034;73.150;2023-06-14T11:11:53;23.02;32.02
72762;SHT30;60886;55.034;73.150;2023-06-14T11:14:55;23.02;32.18
72762;SHT30;60886;55.034;73.150;2023-06-14T11:18:00;23.05;32.66
72762;SHT30;60886;55.034;73.150;2023-06-14T11:21:02;23.08;33.01
72762;SHT30;60886;55.034;73.150;2023-06-14T11:24:04;23.08;33.17
72762;SHT30;60886;55.034;73.150;2023-06-14T11:27:11;23.02;32.52
72762;SHT30;60886;55.034;73.150;2023-06-14T11:30:13;23.05;32.65
72762;SHT30;60886;55.034;73.150;2023-06-14T11:33:18;22.99;33.38
72762;SHT30;60886;55.034;73.150;2023-06-14T11:36:21;22.99;33.66
72762;SHT30;60886;55.034;73.150;2023-06-14T11:39:24;22.95;33.31
72762;SHT30;60886;55.034;73.150;2023-06-14T11:42:27;22.94;32.97
72762;SHT30;60886;55.034;73.150;2023-06-14T11:45:29;22.92;32.43
72762;SHT30;60886;55.034;73.150;2023-06-14T11:48:42;22.91;33.27
72762;SHT30;60886;55.034;73.150;2023-06-14T11:51:44;22.91;32.84
72762;SHT30;60886;55.034;73.150;2023-06-14T11:54:47;22.94;34.26
72762;SHT30;60886;55.034;73.150;2023-06-14T11:57:49;22.88;33.47
72762;SHT30;60886;55.034;73.150;2023-06-14T12:00:52;22.92;33.81
72762;SHT30;60886;55.034;73.150;2023-06-14T12:04:04;22.96;34.10
72762;SHT30;60886;55.034;73.150;2023-06-14T12:07:12;22.96;33.88
72762;SHT30;60886;55.034;73.150;2023-06-14T12:10:16;22.96;34.14
72762;SHT30;60886;55.034;73.150;2023-06-14T12:13:21;22.92;34.31
72762;SHT30;60886;55.034;73.150;2023-06-14T12:16:30;22.95;33.21
72762;SHT30;60886;55.034;73.150;2023-06-14T12:19:41;22.94;33.43
72762;SHT30;60886;55.034;73.150;2023-06-14T12:22:50;22.92;33.49
72762;SHT30;60886;55.034;73.150;2023-06-14T12:25:52;22.87;34.21
72762;SHT30;60886;55.034;73.150;2023-06-14T12:29:05;22.83;34.34
72762;SHT30;60886;55.034;73.150;2023-06-14T12:32:08;22.81;34.37
72762;SHT30;60886;55.034;73.150;2023-06-14T12:35:09;22.87;34.49
72762;SHT30;60886;55.034;73.150;2023-06-14T12:38:11;22.85;34.40
72762;SHT30;60886;55.034;73.150;2023-06-14T12:41:13;22.83;34.08
72762;SHT30;60886;55.034;73.150;2023-06-14T12:44:15;22.85;34.45
72762;SHT30;60886;55.034;73.150;2023-06-14T12:47:17;22.83;34.25
72762;SHT30;60886;55.034;73.150;2023-06-14T12:50:18;22.78;34.79
72762;SHT30;60886;55.034;73.150;2023-06-14T12:53:20;22.75;34.46
72762;SHT30;60886;55.034;73.150;2023-06-14T12:56:22;22.72;35.20
72762;SHT30;60886;55.034;73.150;2023-06-14T12:59:23;22.74;35.42
72762;SHT30;60886;55.034;73.150;2023-06-14T13:02:24;22.65;34.66
72762;SHT30;60886;55.034;73.150;2023-06-14T13:05:26;22.69;34.41
72762;SHT30;60886;55.034;73.150;2023-06-14T13:08:28;22.68;35.06
72762;SHT30;60886;55.034;73.150;2023-06-14T13:11:29;22.68;34.88
72762;SHT30;60886;55.034;73.150;2023-06-14T13:14:31;22.67;35.38
72762;SHT30;60886;55.034;73.150;2023-06-14T13:17:34;22.68;35.22
72762;SHT30;60886;55.034;73.150;2023-06-14T13:20:39;22.61;35.58
72762;SHT30;60886;55.034;73.150;2023-06-14T13:23:41;22.55;35.55
72762;SHT30;60886;55.034;73.150;2023-06-14T13:26:42;22.51;35.69
72762;SHT30;60886;55.034;73.150;2023-06-14T13:29:44;22.50;35.35
72762;SHT30;60886;55.034;73.150;2023-06-14T13:32:46;22.47;35.82
72762;SHT30;60886;55.034;73.150;2023-06-14T13:35:48;22.41;36.44
72762;SHT30;60886;55.034;73.150;2023-06-14T13:38:49;22.36;35.72
72762;SHT30;60886;55.034;73.150;2023-06-14T13:41:53;22.27;35.61
72762;SHT30;60886;55.034;73.150;2023-06-14T13:44:55;22.23;36.05
72762;SHT30;60886;55.034;73.150;2023-06-14T13:47:56;22.18;35.97
72762;SHT30;60886;55.034;73.150;2023-06-14T13:50:59;22.14;36.25
72762;SHT30;60886;55.034;73.150;2023-06-14T13:54:04;22.13;35.77
72762;SHT30;60886;55.034;73.150;2023-06-14T13:57:06;22.09;35.70
72762;SHT30;60886;55.034;73.150;2023-06-14T14:00:08;22.11;36.03
72762;SHT30;60886;55.034;73.150;2023-06-14T14:03:17;22.07;36.13
72762;SHT30;60886;55.034;73.150;2023-06-14T14:06:20;22.06;36.47
72762;SHT30;60886;55.034;73.150;2023-06-14T14:09:22;22.03;36.33
72762;SHT30;60886;55.034;73.150;2023-06-14T14:12:23;21.97;36.77
72762;SHT30;60886;55.034;73.150;2023-06-14T14:15:26;21.92;37.01
72762;SHT30;60886;55.034;73.150;2023-06-14T14:18:28;21.86;36.81
72762;SHT30;60886;55.034;73.150;2023-06-14T14:21:29;21.83;36.44
72762;SHT30;60886;55.034;73.150;2023-06-14T14:24:31;21.78;37.53
72762;SHT30;60886;55.034;73.150;2023-06-14T14:27:32;21.70;37.01
72762;SHT30;60886;55.034;73.150;2023-06-14T14:30:33;21.69;37.24
72762;SHT30;60886;55.034;73.150;2023-06-14T14:33:35;21.63;37.69
72762;SHT30;60886;55.034;73.150;2023-06-14T14:36:36;21.56;37.73
72762;SHT30;60886;55.034;73.150;2023-06-14T14:39:38;21.50;37.60
72762;SHT30;60886;55.034;73.150;2023-06-14T14:42:40;21.48;37.84
72762;SHT30;60886;55.034;73.150;2023-06-14T14:45:41;21.41;37.93
72762;SHT30;60886;55.034;73.150;2023-06-14T14:48:43;21.35;38.45
72762;SHT30;60886;55.034;73.150;2023-06-14T14:51:44;21.32;38.13
72762;SHT30;60886;55.034;73.150;2023-06-14T14:54:46;21.24;38.77
72762;SHT30;60886;55.034;73.150;2023-06-14T14:57:47;21.19;38.50
72762;SHT30;60886;55.034;73.150;2023-06-14T15:00:49;21.14;38.92
72762;SHT30;60886;55.034;73.150;2023-06-14T15:03:50;21.02;39.35
72762;SHT30;60886;55.034;73.150;2023-06-14T15:06:52;20.97;39.09
72762;SHT30;60886;55.034;73.150;2023-06-14T15:09:54;20.92;39.44
72762;SHT30;60886;55.034;73.150;2023-06-14T15:12:56;20.85;39.70
72762;SHT30;60886;55.034;73.150;2023-06-14T15:15:58;20.78;39.91
72762;SHT30;60886;55.034;73.150;2023-06-14T15:19:04;20.64;40.37
72762;SHT30;60886;55.034;73.150;2023-06-14T15:22:05;20.55;40.71
72762;SHT30;60886;55.034;73.150;2023-06-14T15:25:07;20.47;40.59
72762;SHT30;60886;55.034;73.150;2023-06-14T15:28:09;20.41;41.06
72762;SHT30;60886;55.034;73.150;2023-06-14T15:31:12;20.32;41.11
72762;SHT30;60886;55.034;73.150;2023-06-14T15:34:13;20.20;41.12
72762;SHT30;60886;55.034;73.150;2023-06-14T15:37:14;20.12;41.56
72762;SHT30;60886;55.034;73.150;2023-06-14T15:40:16;20.00;41.81
72762;SHT30;60886;55.034;73.150;2023-06-14T15:43:18;19.89;41.97
72762;SHT30;60886;55.034;73.150;2023-06-14T15:46:21;19.80;42.45
72762;SHT30;60886;55.034;73.150;2023-06-14T15:49:23;19.72;42.66
72762;SHT30;60886;55.034;73.150;2023-06-14T15:52:24;19.62;42.82
72762;SHT30;60886;55.034;73.150;2023-06-14T15:55:26;19.54;43.33
72762;SHT30;60886;55.034;73.150;2023-06-14T15:58:27;19.45;43.85
72762;SHT30;60886;55.034;73.150;2023-06-14T16:01:29;19.36;44.01
72762;SHT30;60886;55.034;73.150;2023-06-14T16:04:31;19.29;44.47
72762;SHT30;60886;55.034;73.150;2023-06-14T16:07:32;19.18;44.52
72762;SHT30;60886;55.034;73.150;2023-06-14T16:10:34;19.08;44.25
72762;SHT30;60886;55.034;73.150;2023-06-14T16:13:40;19.04;44.39
72762;SHT30;60886;55.034;73.150;2023-06-14T16:16:42;18.97;44.15
72762;SHT30;60886;55.034;73.150;2023-06-14T16:19:43;18.93;44.20
72762;SHT30;60886;55.034;73.150;2023-06-14T16:22:45;18.84;44.31
72762;SHT30;60886;55.034;73.150;2023-06-14T16:25:47;18.78;44.16
72762;SHT30;60886;55.034;73.150;2023-06-14T16:28:49;18.73;44.44
72762;SHT30;60886;55.034;73.150;2023-06-14T16:31:52;18.70;44.14
72762;SHT30;60886;55.034;73.150;2023-06-14T16:34:53;18.64;44.07
72762;SHT30;60886;55.034;73.150;2023-06-14T16:37:55;18.61;44.25
72762;SHT30;60886;55.034;73.150;2023-06-14T16:40:58;18.50;44.36
72762;SHT30;60886;55.034;73.150;2023-06-14T16:44:04;18.43;44.61
72762;SHT30;60886;55.034;73.150;2023-06-14T16:47:06;18.39;44.61
72762;SHT30;60886;55.034;73.150;2023-06-14T16:50:10;18.32;44.37
72762;SHT30;60886;55.034;73.150;2023-06-14T16:53:12;18.26;44.77
72762;SHT30;60886;55.034;73.150;2023-06-14T16:56:13;18.19;44.96
72762;SHT30;60886;55.034;73.150;2023-06-14T16:59:14;18.15;45.04
72762;SHT30;60886;55.034;73.150;2023-06-14T17:02:16;18.06;45.06
72762;SHT30;60886;55.034;73.150;2023-06-14T17:05:18;18.02;45.43
72762;SHT30;60886;55.034;73.150;2023-06-14T17:08:19;17.95;45.37
72762;SHT30;60886;55.034;73.150;2023-06-14T17:11:21;17.91;45.46
72762;SHT30;60886;55.034;73.150;2023-06-14T17:14:25;17.85;45.59
72762;SHT30;60886;55.034;73.150;2023-06-14T17:17:27;17.78;45.64
72762;SHT30;60886;55.034;73.150;2023-06-14T17:20:28;17.77;45.58
72762;SHT30;60886;55.034;73.150;2023-06-14T17:23:30;17.74;45.84
72762;SHT30;60886;55.034;73.150;2023-06-14T17:26:31;17.67;45.91
72762;SHT30;60886;55.034;73.150;2023-06-14T17:29:34;17.62;45.92
72762;SHT30;60886;55.034;73.150;2023-06-14T17:32:36;17.55;45.75
72762;SHT30;60886;55.034;73.150;2023-06-14T17:35:38;17.52;46.21
72762;SHT30;60886;55.034;73.150;2023-06-14T17:38:39;17.50;46.10
72762;SHT30;60886;55.034;73.150;2023-06-14T17:41:48;17.44;46.15
72762;SHT30;60886;55.034;73.150;2023-06-14T17:44:49;17.40;46.29
72762;SHT30;60886;55.034;73.150;2023-06-14T17:47:53;17.34;46.59
72762;SHT30;60886;55.034;73.150;2023-06-14T17:50:54;17.34;46.46
72762;SHT30;60886;55.034;73.150;2023-06-14T17:54:03;17.30;46.52
72762;SHT30;60886;55.034;73.150;2023-06-14T17:57:05;17.26;46.75
72762;SHT30;60886;55.034;73.150;2023-06-14T18:00:07;17.24;46.65
72762;SHT30;60886;55.034;73.150;2023-06-14T18:03:15;17.18;46.66
72762;SHT30;60886;55.034;73.150;2023-06-14T18:06:17;17.16;46.64
72762;SHT30;60886;55.034;73.150;2023-06-14T18:09:20;17.11;47.36
72762;SHT30;60886;55.034;73.150;2023-06-14T18:12:22;17.06;46.89
72762;SHT30;60886;55.034;73.150;2023-06-14T18:15:24;17.04;47.07
72762;SHT30;60886;55.034;73.150;2023-06-14T18:18:26;17.03;46.90
72762;SHT30;60886;55.034;73.150;2023-06-14T18:21:27;17.02;47.25
72762;SHT30;60886;55.034;73.150;2023-06-14T18:24:29;16.97;47.19
72762;SHT30;60886;55.034;73.150;2023-06-14T18:27:30;16.97;47.11
72762;SHT30;60886;55.034;73.150;2023-06-14T18:30:32;16.94;47.28
72762;SHT30;60886;55.034;73.150;2023-06-14T18:33:33;16.90;47.63
72762;SHT30;60886;55.034;73.150;2023-06-14T18:36:34;16.88;47.62
72762;SHT30;60886;55.034;73.150;2023-06-14T18:39:38;16.84;47.52
72762;SHT30;60886;55.034;73.150;2023-06-14T18:42:39;16.81;47.42
72762;SHT30;60886;55.034;73.150;2023-06-14T18:45:42;16.80;47.64
72762;SHT30;60886;55.034;73.150;2023-06-14T18:48:44;16.76;47.71
72762;SHT30;60886;55.034;73.150;2023-06-14T18:51:46;16.70;48.16
72762;SHT30;60886;55.034;73.150;2023-06-14T18:54:48;16.69;48.08
72762;SHT30;60886;55.034;73.150;2023-06-14T18:57:49;16.66;48.02
72762;SHT30;60886;55.034;73.150;2023-06-14T19:00:51;16.63;48.17
72762;SHT30;60886;55.034;73.150;2023-06-14T19:03:52;16.59;48.20
72762;SHT30;60886;55.034;73.150;2023-06-14T19:06:54;16.56;48.30
72762;SHT30;60886;55.034;73.150;2023-06-14T19:09:55;16.48;48.62
72762;SHT30;60886;55.034;73.150;2023-06-14T19:12:56;16.49;48.62
72762;SHT30;60886;55.034;73.150;2023-06-14T19:15:58;16.45;48.44
72762;SHT30;60886;55.034;73.150;2023-06-14T19:19:03;16.41;48.92